createdAt,value
2018-07-05T00:02:00.886Z,22.78
2018-07-05T00:04:41.940Z,22.72
2018-07-05T00:07:22.426Z,22.68
2018-07-05T00:10:02.970Z,22.66
2018-07-05T00:12:43.984Z,22.69
2018-07-05T00:15:24.625Z,22.67
2018-07-05T00:18:05.198Z,22.61
2018-07-05T00:20:46.296Z,22.53
2018-07-05T00:23:27.026Z,22.53
2018-07-05T00:26:07.519Z,22.47
2018-07-05T00:28:48.157Z,22.48
2018-07-05T00:31:28.781Z,22.52
2018-07-05T00:34:09.634Z,22.45
2018-07-05T00:36:50.667Z,22.39
2018-07-05T00:39:31.745Z,22.35
2018-07-05T00:42:12.218Z,22.30
2018-07-05T00:44:52.994Z,22.25
2018-07-05T00:47:33.360Z,22.22
2018-07-05T00:50:13.969Z,22.22
2018-07-05T00:52:54.694Z,22.21
2018-07-05T00:55:35.952Z,22.24
2018-07-05T00:58:16.426Z,22.21
2018-07-05T01:00:57.065Z,22.23
2018-07-05T01:03:38.050Z,22.18
2018-07-05T01:06:18.918Z,22.13
2018-07-05T01:08:59.553Z,22.10
2018-07-05T01:11:40.214Z,22.10
2018-07-05T01:14:20.686Z,22.12
2018-07-05T01:17:02.030Z,22.07
2018-07-05T01:19:42.451Z,22.05
2018-07-05T01:22:23.358Z,21.97
2018-07-05T01:25:04.844Z,22.00
2018-07-05T01:27:45.554Z,21.97
2018-07-05T01:30:26.390Z,21.85
2018-07-05T01:33:07.432Z,21.76
2018-07-05T01:35:48.552Z,21.66
2018-07-05T01:38:29.098Z,21.66
2018-07-05T01:41:09.797Z,21.71
2018-07-05T01:43:50.381Z,21.46
2018-07-05T01:46:30.823Z,21.51
2018-07-05T01:49:11.556Z,21.56
2018-07-05T01:51:51.990Z,21.52
2018-07-05T01:54:32.652Z,21.59
2018-07-05T01:57:13.108Z,21.51
2018-07-05T01:59:53.439Z,21.46
2018-07-05T02:02:34.195Z,21.36
2018-07-05T02:05:14.758Z,21.40
2018-07-05T02:07:55.206Z,21.34
2018-07-05T02:10:35.954Z,21.43
2018-07-05T02:13:16.868Z,21.40
2018-07-05T02:15:57.576Z,21.40
2018-07-05T02:18:38.369Z,21.39
2018-07-05T02:21:19.378Z,21.45
2018-07-05T02:24:00.225Z,21.38
2018-07-05T02:26:40.675Z,21.31
2018-07-05T02:29:21.613Z,21.40
2018-07-05T02:32:02.218Z,21.36
2018-07-05T02:34:42.605Z,21.37
2018-07-05T02:37:28.450Z,21.42
2018-07-05T02:40:09.060Z,21.45
2018-07-05T02:42:50.016Z,21.40
2018-07-05T02:45:30.406Z,21.46
2018-07-05T02:48:11.067Z,21.41
2018-07-05T02:50:51.717Z,21.50
2018-07-05T02:53:32.475Z,21.48
2018-07-05T02:56:13.479Z,21.46
2018-07-05T02:58:53.942Z,21.45
2018-07-05T03:01:34.967Z,21.43
2018-07-05T03:04:16.020Z,21.39
2018-07-05T03:06:57.611Z,21.44
2018-07-05T03:09:38.322Z,21.46
2018-07-05T03:12:19.682Z,21.42
2018-07-05T03:15:00.566Z,21.44
2018-07-05T03:17:41.555Z,21.31
2018-07-05T03:20:22.293Z,21.30
2018-07-05T03:23:03.024Z,21.37
2018-07-05T03:25:43.422Z,21.40
2018-07-05T03:28:24.262Z,21.35
2018-07-05T03:31:04.716Z,21.22
2018-07-05T03:33:49.045Z,21.24
2018-07-05T03:36:29.910Z,21.26
2018-07-05T03:39:10.608Z,21.26
2018-07-05T03:41:51.582Z,21.28
2018-07-05T03:44:32.121Z,21.25
2018-07-05T03:47:12.734Z,21.17
2018-07-05T03:49:53.202Z,21.14
2018-07-05T03:52:33.762Z,21.13
2018-07-05T03:55:14.198Z,21.14
2018-07-05T03:57:54.769Z,21.06
2018-07-05T04:00:38.388Z,21.05
2018-07-05T04:03:19.255Z,20.98
2018-07-05T04:06:00.070Z,20.93
2018-07-05T04:08:40.502Z,21.01
2018-07-05T04:11:24.643Z,21.10
2018-07-05T04:14:05.345Z,21.17
2018-07-05T04:16:46.155Z,21.17
2018-07-05T04:19:26.724Z,21.15
2018-07-05T04:22:07.205Z,21.13
2018-07-05T04:24:48.737Z,21.13
2018-07-05T04:27:29.727Z,21.08
2018-07-05T04:30:10.652Z,20.89
2018-07-05T04:32:51.048Z,20.93
2018-07-05T04:35:32.376Z,21.04
2018-07-05T04:38:12.789Z,21.07
2018-07-05T04:40:53.551Z,21.05
2018-07-05T04:43:34.086Z,21.11
2018-07-05T04:46:14.574Z,21.15
2018-07-05T04:48:55.235Z,21.16
2018-07-05T04:51:35.999Z,21.24
2018-07-05T04:54:18.250Z,21.14
2018-07-05T04:56:59.014Z,21.15
2018-07-05T04:59:40.096Z,21.24
2018-07-05T05:02:21.042Z,21.22
2018-07-05T05:05:02.370Z,21.32
2018-07-05T05:07:42.794Z,21.33
2018-07-05T05:10:23.650Z,21.43
2018-07-05T05:13:04.475Z,21.42
2018-07-05T05:15:44.827Z,21.43
2018-07-05T05:18:25.268Z,21.47
2018-07-05T05:21:05.867Z,21.38
2018-07-05T05:23:46.486Z,21.36
2018-07-05T05:26:27.061Z,21.40
2018-07-05T05:29:07.668Z,21.40
2018-07-05T05:31:48.947Z,21.48
2018-07-05T05:34:29.656Z,21.34
2018-07-05T05:37:10.773Z,21.37
2018-07-05T05:39:51.464Z,21.43
2018-07-05T05:42:36.154Z,21.52
2018-07-05T05:45:17.495Z,21.53
2018-07-05T05:47:58.066Z,21.61
2018-07-05T05:50:38.632Z,21.64
2018-07-05T05:53:19.450Z,21.61
2018-07-05T05:56:00.116Z,21.62
2018-07-05T05:58:41.964Z,21.65
2018-07-05T06:01:22.611Z,21.70
2018-07-05T06:04:03.410Z,21.67
2018-07-05T06:06:43.963Z,21.65
2018-07-05T06:09:24.526Z,21.65
2018-07-05T06:12:05.018Z,21.64
2018-07-05T06:14:45.566Z,21.66
2018-07-05T06:17:25.950Z,21.64
2018-07-05T06:20:06.378Z,21.64
2018-07-05T06:22:46.901Z,21.68
2018-07-05T06:25:27.478Z,21.69
2018-07-05T06:28:07.879Z,21.72
2018-07-05T06:30:48.829Z,21.67
2018-07-05T06:33:29.672Z,21.62
2018-07-05T06:36:10.082Z,21.59
2018-07-05T06:38:50.519Z,21.63
2018-07-05T06:41:31.480Z,21.60
2018-07-05T06:44:12.268Z,21.62
2018-07-05T06:46:52.767Z,21.69
2018-07-05T06:49:33.345Z,21.78
2018-07-05T06:52:13.983Z,21.79
2018-07-05T06:54:54.412Z,21.80
2018-07-05T06:57:34.870Z,21.77
2018-07-05T07:00:15.538Z,21.83
2018-07-05T07:02:55.922Z,21.91
2018-07-05T07:05:36.274Z,21.91
2018-07-05T07:08:17.041Z,21.95
2018-07-05T07:10:58.041Z,21.95
2018-07-05T07:13:38.945Z,21.94
2018-07-05T07:16:19.440Z,21.84
2018-07-05T07:19:00.447Z,21.85
2018-07-05T07:21:40.915Z,21.83
2018-07-05T07:24:21.657Z,21.79
2018-07-05T07:27:02.749Z,21.88
2018-07-05T07:29:43.124Z,21.93
2018-07-05T07:32:23.609Z,21.99
2018-07-05T07:35:04.419Z,21.98
2018-07-05T07:37:45.748Z,22.08
2018-07-05T07:40:26.318Z,22.15
2018-07-05T07:42:54.362Z,22.15
2018-07-05T07:45:22.460Z,22.14
2018-07-05T07:47:50.655Z,22.26
2018-07-05T07:50:19.050Z,22.30
2018-07-05T07:52:47.466Z,22.36
2018-07-05T07:55:15.721Z,22.34
2018-07-05T07:57:44.111Z,22.24
2018-07-05T08:00:12.488Z,22.31
2018-07-05T08:02:40.748Z,22.26
2018-07-05T08:05:08.811Z,22.21
2018-07-05T08:07:37.711Z,22.27
2018-07-05T08:10:05.717Z,22.24
2018-07-05T08:12:34.014Z,22.22
2018-07-05T08:15:02.698Z,22.25
2018-07-05T08:17:30.652Z,22.18
2018-07-05T08:19:59.537Z,22.15
2018-07-05T08:22:28.540Z,22.15
2018-07-05T08:24:56.856Z,22.24
2018-07-05T08:27:25.043Z,22.32
2018-07-05T08:29:53.762Z,22.16
2018-07-05T08:32:22.007Z,22.31
2018-07-05T08:34:50.138Z,22.46
2018-07-05T08:37:18.588Z,22.48
2018-07-05T08:39:46.706Z,22.31
2018-07-05T08:42:14.761Z,22.45
2018-07-05T08:44:43.137Z,22.52
2018-07-05T08:47:11.113Z,22.54
2018-07-05T08:49:39.418Z,22.56
2018-07-05T08:52:07.923Z,22.70
2018-07-05T08:54:35.978Z,22.65
2018-07-05T08:57:04.275Z,22.65
2018-07-05T08:59:33.065Z,22.65
2018-07-05T09:02:01.051Z,22.59
2018-07-05T09:04:29.025Z,22.63
2018-07-05T09:06:57.875Z,22.72
2018-07-05T09:09:26.317Z,22.78
2018-07-05T09:11:54.658Z,22.85
2018-07-05T09:14:22.972Z,22.87
2018-07-05T09:16:51.294Z,22.93
2018-07-05T09:19:20.274Z,23.05
2018-07-05T09:21:48.534Z,23.15
2018-07-05T09:24:16.618Z,23.25
2018-07-05T09:26:45.450Z,23.26
2018-07-05T09:29:13.788Z,23.32
2018-07-05T09:31:45.328Z,23.45
2018-07-05T09:34:14.677Z,23.47
2018-07-05T09:36:42.713Z,23.52
2018-07-05T09:39:10.717Z,23.64
2018-07-05T09:41:39.472Z,23.71
2018-07-05T09:44:08.014Z,23.79
2018-07-05T09:46:36.247Z,23.76
2018-07-05T09:49:04.299Z,23.81
2018-07-05T09:51:35.558Z,23.92
2018-07-05T09:54:03.695Z,23.98
2018-07-05T09:56:31.720Z,24.08
2018-07-05T09:58:59.986Z,24.11
2018-07-05T10:01:28.074Z,24.11
2018-07-05T10:03:56.347Z,24.10
2018-07-05T10:06:24.736Z,24.18
2018-07-05T10:08:53.453Z,24.21
2018-07-05T10:11:21.878Z,24.35
2018-07-05T10:13:50.539Z,24.48
2018-07-05T10:16:18.632Z,24.54
2018-07-05T10:18:46.947Z,24.50
2018-07-05T10:21:15.078Z,24.52
2018-07-05T10:23:43.512Z,24.51
2018-07-05T10:26:11.629Z,24.62
2018-07-05T10:28:52.633Z,24.61
2018-07-05T10:31:34.110Z,24.67
2018-07-05T10:34:02.400Z,24.70
2018-07-05T10:36:30.429Z,24.63
2018-07-05T10:38:58.442Z,24.72
2018-07-05T10:41:38.825Z,24.76
2018-07-05T10:44:19.154Z,24.75
2018-07-05T10:47:00.030Z,24.72
2018-07-05T10:49:40.727Z,24.82
2018-07-05T10:52:20.961Z,24.87
2018-07-05T10:55:01.718Z,24.93
2018-07-05T10:57:42.691Z,24.95
2018-07-05T11:00:23.675Z,25.06
2018-07-05T11:03:04.550Z,25.10
2018-07-05T11:05:49.079Z,25.16
2018-07-05T11:08:29.573Z,25.17
2018-07-05T11:11:10.575Z,25.18
2018-07-05T11:13:51.379Z,25.13
2018-07-05T11:16:32.011Z,25.10
2018-07-05T11:19:12.644Z,25.08
2018-07-05T11:21:53.521Z,25.11
2018-07-05T11:24:34.193Z,25.04
2018-07-05T11:27:15.138Z,25.00
2018-07-05T11:29:55.918Z,25.05
2018-07-05T11:32:36.891Z,25.06
2018-07-05T11:35:17.493Z,25.11
2018-07-05T11:37:57.983Z,25.12
2018-07-05T11:40:38.469Z,25.23
2018-07-05T11:43:19.314Z,25.33
2018-07-05T11:45:59.869Z,25.42
2018-07-05T11:48:40.444Z,25.52
2018-07-05T11:51:21.234Z,25.38
2018-07-05T11:54:02.712Z,25.42
2018-07-05T11:56:43.194Z,25.47
2018-07-05T11:59:23.799Z,25.61
2018-07-05T12:02:04.641Z,25.77
2018-07-05T12:04:45.033Z,26.02
2018-07-05T12:07:25.533Z,26.09
2018-07-05T12:10:06.159Z,26.00
2018-07-05T12:12:46.744Z,25.85
2018-07-05T12:15:27.098Z,25.78
2018-07-05T12:18:08.318Z,25.68
2018-07-05T12:20:48.696Z,25.77
2018-07-05T12:23:29.658Z,25.86
2018-07-05T12:26:10.248Z,25.92
2018-07-05T12:28:51.174Z,26.06
2018-07-05T12:31:31.747Z,26.11
2018-07-05T12:34:12.589Z,26.24
2018-07-05T12:36:53.768Z,26.30
2018-07-05T12:39:34.767Z,26.38
2018-07-05T12:42:15.603Z,26.49
2018-07-05T12:44:56.531Z,26.87
2018-07-05T12:47:37.029Z,26.82
2018-07-05T12:50:18.322Z,26.49
2018-07-05T12:52:58.774Z,26.40
2018-07-05T12:55:42.864Z,26.57
2018-07-05T12:58:23.678Z,26.50
2018-07-05T13:01:04.430Z,26.63
2018-07-05T13:03:45.554Z,26.58
2018-07-05T13:06:26.579Z,26.57
2018-07-05T13:09:08.665Z,26.70
2018-07-05T13:11:49.320Z,26.90
2018-07-05T13:14:30.312Z,26.98
2018-07-05T13:17:10.977Z,27.26
2018-07-05T13:19:51.660Z,27.35
2018-07-05T13:22:32.098Z,27.37
2018-07-05T13:25:12.762Z,27.51
2018-07-05T13:27:53.866Z,27.00
2018-07-05T13:30:34.827Z,26.86
2018-07-05T13:33:15.479Z,27.16
2018-07-05T13:35:56.015Z,27.34
2018-07-05T13:38:36.733Z,27.12
2018-07-05T13:41:17.597Z,27.29
2018-07-05T13:43:58.151Z,27.65
2018-07-05T13:46:39.053Z,27.55
2018-07-05T13:49:19.620Z,27.65
2018-07-05T13:52:00.172Z,27.66
2018-07-05T13:54:40.878Z,27.51
2018-07-05T13:57:22.053Z,27.58
2018-07-05T14:00:02.896Z,27.70
2018-07-05T14:02:43.682Z,27.81
2018-07-05T14:05:24.449Z,27.81
2018-07-05T14:08:05.021Z,27.81
2018-07-05T14:10:45.649Z,27.72
2018-07-05T14:13:26.071Z,27.60
2018-07-05T14:16:06.558Z,27.44
2018-07-05T14:18:47.041Z,27.31
2018-07-05T14:21:31.173Z,27.31
2018-07-05T14:24:11.705Z,27.30
2018-07-05T14:26:52.678Z,27.30
2018-07-05T14:29:33.138Z,27.40
2018-07-05T14:32:14.183Z,27.48
2018-07-05T14:34:54.817Z,27.63
2018-07-05T14:37:35.633Z,27.68
2018-07-05T14:40:16.712Z,27.70
2018-07-05T14:42:57.553Z,27.61
2018-07-05T14:45:38.329Z,27.64
2018-07-05T14:48:18.644Z,27.48
2018-07-05T14:50:59.421Z,27.50
2018-07-05T14:53:40.426Z,27.55
2018-07-05T14:56:21.326Z,27.62
2018-07-05T14:59:02.365Z,27.48
2018-07-05T15:01:42.857Z,27.28
2018-07-05T15:04:23.434Z,27.32
2018-07-05T15:07:04.105Z,27.44
2018-07-05T15:09:44.663Z,27.57
2018-07-05T15:12:25.504Z,27.80
2018-07-05T15:15:05.947Z,27.71
2018-07-05T15:17:46.399Z,27.57
2018-07-05T15:20:26.971Z,27.52
2018-07-05T15:23:07.471Z,27.60
2018-07-05T15:25:48.050Z,27.63
2018-07-05T15:28:28.503Z,27.51
2018-07-05T15:31:09.553Z,27.56
2018-07-05T15:33:50.234Z,27.63
2018-07-05T15:36:31.035Z,27.50
2018-07-05T15:39:11.850Z,27.28
2018-07-05T15:41:52.521Z,27.11
2018-07-05T15:44:33.449Z,27.03
2018-07-05T15:47:13.912Z,27.04
2018-07-05T15:49:54.834Z,27.08
2018-07-05T15:52:35.662Z,26.92
2018-07-05T15:55:16.435Z,26.91
2018-07-05T15:57:57.262Z,26.89
2018-07-05T16:00:38.124Z,26.96
2018-07-05T16:03:18.499Z,27.02
2018-07-05T16:05:59.462Z,27.11
2018-07-05T16:08:40.055Z,27.22
2018-07-05T16:11:20.597Z,27.11
2018-07-05T16:14:01.246Z,27.12
2018-07-05T16:16:41.889Z,27.29
2018-07-05T16:19:22.705Z,27.16
2018-07-05T16:22:03.447Z,26.88
2018-07-05T16:24:44.439Z,26.85
2018-07-05T16:27:24.922Z,26.78
2018-07-05T16:30:05.320Z,26.77
2018-07-05T16:32:45.860Z,26.82
2018-07-05T16:35:26.570Z,26.78
2018-07-05T16:38:07.027Z,26.86
2018-07-05T16:40:47.670Z,26.86
2018-07-05T16:43:28.190Z,26.98
2018-07-05T16:46:09.347Z,26.93
2018-07-05T16:48:50.203Z,26.76
2018-07-05T16:51:30.589Z,26.71
2018-07-05T16:54:10.895Z,26.73
2018-07-05T16:56:51.550Z,26.82
2018-07-05T16:59:32.389Z,26.84
2018-07-05T17:02:13.272Z,26.82
2018-07-05T17:04:53.808Z,26.88
2018-07-05T17:07:34.708Z,26.74
2018-07-05T17:10:15.152Z,26.86
2018-07-05T17:12:55.966Z,26.85
2018-07-05T17:15:36.879Z,26.85
2018-07-05T17:18:18.255Z,26.84
2018-07-05T17:20:59.049Z,26.74
2018-07-05T17:23:39.699Z,26.71
2018-07-05T17:26:20.249Z,26.65
2018-07-05T17:29:01.041Z,26.59
2018-07-05T17:31:41.591Z,26.62
2018-07-05T17:34:22.114Z,26.63
2018-07-05T17:37:03.383Z,26.64
2018-07-05T17:39:48.025Z,26.60
2018-07-05T17:42:28.694Z,26.39
2018-07-05T17:45:09.578Z,26.36
2018-07-05T17:47:50.288Z,26.42
2018-07-05T17:50:30.939Z,26.41
2018-07-05T17:53:11.495Z,26.45
2018-07-05T17:55:51.942Z,26.41
2018-07-05T17:58:33.129Z,26.38
2018-07-05T18:01:13.478Z,26.36
2018-07-05T18:03:54.133Z,26.37
2018-07-05T18:06:35.104Z,26.35
2018-07-05T18:09:15.947Z,26.33
2018-07-05T18:11:56.683Z,26.33
2018-07-05T18:14:37.597Z,26.34
2018-07-05T18:17:19.103Z,26.25
2018-07-05T18:19:59.953Z,26.22
2018-07-05T18:22:40.453Z,26.13
2018-07-05T18:25:21.711Z,26.12
2018-07-05T18:28:03.290Z,26.11
2018-07-05T18:30:49.146Z,26.02
2018-07-05T18:33:30.073Z,25.99
2018-07-05T18:36:10.510Z,25.93
2018-07-05T18:38:55.700Z,25.89
2018-07-05T18:41:36.424Z,25.87
2018-07-05T18:44:17.049Z,25.88
2018-07-05T18:46:57.632Z,25.82
2018-07-05T18:49:42.337Z,25.83
2018-07-05T18:52:23.180Z,25.71
2018-07-05T18:55:07.436Z,25.65
2018-07-05T18:57:48.193Z,25.64
2018-07-05T19:00:28.667Z,25.61
2018-07-05T19:03:09.197Z,25.56
2018-07-05T19:05:49.560Z,25.52
2018-07-05T19:08:29.994Z,25.51
2018-07-05T19:11:10.710Z,25.48
2018-07-05T19:13:51.417Z,25.36
2018-07-05T19:16:32.237Z,25.34
2018-07-05T19:19:12.760Z,25.17
2018-07-05T19:21:53.835Z,25.06
2018-07-05T19:24:34.402Z,24.94
2018-07-05T19:27:14.965Z,24.94
2018-07-05T19:29:55.312Z,24.84
2018-07-05T19:32:36.131Z,24.84
2018-07-05T19:35:16.968Z,24.79
2018-07-05T19:37:57.445Z,24.74
2018-07-05T19:40:37.764Z,24.64
2018-07-05T19:43:18.321Z,24.57
2018-07-05T19:45:59.049Z,24.49
2018-07-05T19:48:43.754Z,24.32
2018-07-05T19:51:24.628Z,24.20
2018-07-05T19:54:05.386Z,24.14
2018-07-05T19:56:45.795Z,24.14
2018-07-05T19:59:26.685Z,24.08
2018-07-05T20:02:07.216Z,24.00
2018-07-05T20:04:47.762Z,23.91
2018-07-05T20:07:28.274Z,23.93
2018-07-05T20:10:09.066Z,23.83
2018-07-05T20:12:52.716Z,23.77
2018-07-05T20:15:33.587Z,23.78
2018-07-05T20:18:14.490Z,23.79
2018-07-05T20:20:55.190Z,23.69
2018-07-05T20:23:35.582Z,23.55
2018-07-05T20:26:15.873Z,23.54
2018-07-05T20:28:56.726Z,23.48
2018-07-05T20:31:37.456Z,23.51
2018-07-05T20:34:17.903Z,23.55
2018-07-05T20:36:58.554Z,23.54
2018-07-05T20:39:39.350Z,23.45
2018-07-05T20:42:20.206Z,23.40
2018-07-05T20:45:00.518Z,23.32
2018-07-05T20:47:41.442Z,23.18
2018-07-05T20:50:22.220Z,23.26
2018-07-05T20:53:02.620Z,23.22
2018-07-05T20:55:43.287Z,23.02
2018-07-05T20:58:23.713Z,22.93
2018-07-05T21:01:04.679Z,22.98
2018-07-05T21:03:44.963Z,22.92
2018-07-05T21:06:25.870Z,23.03
2018-07-05T21:09:06.450Z,22.95
2018-07-05T21:11:47.377Z,22.95
2018-07-05T21:14:31.582Z,22.88
2018-07-05T21:17:12.090Z,22.92
2018-07-05T21:19:52.780Z,22.90
2018-07-05T21:22:33.888Z,22.79
2018-07-05T21:25:14.702Z,22.73
2018-07-05T21:27:55.730Z,22.77
2018-07-05T21:30:36.199Z,22.67
2018-07-05T21:33:16.820Z,22.69
2018-07-05T21:35:57.143Z,22.59
2018-07-05T21:38:37.741Z,22.34
2018-07-05T21:41:18.768Z,22.24
2018-07-05T21:44:02.502Z,22.05
2018-07-05T21:46:43.336Z,22.14
2018-07-05T21:49:24.108Z,22.13
2018-07-05T21:52:05.226Z,22.18
2018-07-05T21:54:45.994Z,22.27
2018-07-05T21:57:27.014Z,22.29
2018-07-05T22:00:07.434Z,22.26
2018-07-05T22:02:48.094Z,22.17
2018-07-05T22:05:29.192Z,22.20
2018-07-05T22:08:10.039Z,22.11
2018-07-05T22:10:50.745Z,22.21
2018-07-05T22:13:31.262Z,22.09
2018-07-05T22:16:12.020Z,21.99
2018-07-05T22:18:57.807Z,21.96
2018-07-05T22:21:43.616Z,21.95
2018-07-05T22:24:29.496Z,21.86
2018-07-05T22:27:13.990Z,21.82
2018-07-05T22:29:59.858Z,21.81
2018-07-05T22:32:40.742Z,21.82
2018-07-05T22:35:21.272Z,21.74
2018-07-05T22:38:01.964Z,21.67
2018-07-05T22:40:42.806Z,21.67
2018-07-05T22:43:23.298Z,21.50
2018-07-05T22:46:03.704Z,21.46
2018-07-05T22:48:44.275Z,21.29
2018-07-05T22:51:24.978Z,21.38
2018-07-05T22:54:05.765Z,21.39
2018-07-05T22:56:46.310Z,21.37
2018-07-05T22:59:27.030Z,21.34
2018-07-05T23:02:07.741Z,21.45
2018-07-05T23:04:48.283Z,21.32
2018-07-05T23:07:29.136Z,21.25
2018-07-05T23:10:09.669Z,21.15
2018-07-05T23:12:50.425Z,21.29
2018-07-05T23:15:31.492Z,21.34
2018-07-05T23:18:12.562Z,21.21
2018-07-05T23:20:52.975Z,21.20
2018-07-05T23:23:33.653Z,20.99
2018-07-05T23:26:14.131Z,21.08
2018-07-05T23:28:55.146Z,21.05
2018-07-05T23:31:36.120Z,20.98
2018-07-05T23:34:16.424Z,20.85
2018-07-05T23:36:57.360Z,20.99
2018-07-05T23:39:37.704Z,20.98
2018-07-05T23:42:18.648Z,20.96
2018-07-05T23:44:59.482Z,20.95
2018-07-05T23:47:39.743Z,20.97
2018-07-05T23:50:20.979Z,21.01
2018-07-05T23:53:01.632Z,20.91
2018-07-05T23:55:42.460Z,20.82
2018-07-05T23:58:23.189Z,20.59
